sensor_id;sensor_type;location;lat;lon;timestamp;P1;durP1;ratioP1;P2;durP2;ratioP2
313;SDS011;143;51.634;7.112;2022-10-16T00:00:56;8.77;;;3.00;;
313;SDS011;143;51.634;7.112;2022-10-16T00:03:22;5.17;;;2.80;;
313;SDS011;143;51.634;7.112;2022-10-16T00:05:48;7.13;;;3.20;;
313;SDS011;143;51.634;7.112;2022-10-16T00:08:13;6.30;;;3.00;;
313;SDS011;143;51.634;7.112;2022-10-16T00:10:39;7.57;;;3.10;;
313;SDS011;143;51.634;7.112;2022-10-16T00:13:05;6.77;;;3.17;;
313;SDS011;143;51.634;7.112;2022-10-16T00:15:35;7.70;;;3.40;;
313;SDS011;143;51.634;7.112;2022-10-16T00:18:02;5.97;;;2.90;;
313;SDS011;143;51.634;7.112;2022-10-16T00:20:29;6.10;;;3.10;;
313;SDS011;143;51.634;7.112;2022-10-16T00:22:58;6.60;;;3.43;;
313;SDS011;143;51.634;7.112;2022-10-16T00:25:24;9.23;;;3.50;;
313;SDS011;143;51.634;7.112;2022-10-16T00:27:49;10.00;;;3.00;;
313;SDS011;143;51.634;7.112;2022-10-16T00:30:15;9.73;;;3.83;;
313;SDS011;143;51.634;7.112;2022-10-16T00:32:41;8.00;;;3.47;;
313;SDS011;143;51.634;7.112;2022-10-16T00:35:06;5.87;;;3.20;;
313;SDS011;143;51.634;7.112;2022-10-16T00:37:32;11.80;;;2.70;;
313;SDS011;143;51.634;7.112;2022-10-16T00:39:58;5.57;;;3.13;;
313;SDS011;143;51.634;7.112;2022-10-16T00:42:23;6.60;;;2.63;;
313;SDS011;143;51.634;7.112;2022-10-16T00:44:50;10.27;;;2.97;;
313;SDS011;143;51.634;7.112;2022-10-16T00:47:29;6.23;;;2.80;;
313;SDS011;143;51.634;7.112;2022-10-16T00:50:10;4.53;;;2.50;;
313;SDS011;143;51.634;7.112;2022-10-16T00:52:41;10.20;;;3.30;;
313;SDS011;143;51.634;7.112;2022-10-16T00:55:10;6.17;;;2.67;;
313;SDS011;143;51.634;7.112;2022-10-16T00:57:36;11.47;;;2.83;;
313;SDS011;143;51.634;7.112;2022-10-16T01:00:04;9.67;;;2.83;;
313;SDS011;143;51.634;7.112;2022-10-16T01:02:33;5.80;;;2.50;;
313;SDS011;143;51.634;7.112;2022-10-16T01:04:59;2.93;;;2.33;;
313;SDS011;143;51.634;7.112;2022-10-16T01:13:06;7.13;;;2.80;;
313;SDS011;143;51.634;7.112;2022-10-16T01:21:09;8.63;;;2.80;;
313;SDS011;143;51.634;7.112;2022-10-16T01:32:39;6.37;;;3.67;;
313;SDS011;143;51.634;7.112;2022-10-16T01:35:17;3.10;;;2.87;;
313;SDS011;143;51.634;7.112;2022-10-16T01:38:10;4.40;;;2.70;;
313;SDS011;143;51.634;7.112;2022-10-16T01:40:42;12.10;;;2.77;;
313;SDS011;143;51.634;7.112;2022-10-16T01:43:12;5.70;;;3.33;;
313;SDS011;143;51.634;7.112;2022-10-16T01:45:41;9.30;;;2.60;;
313;SDS011;143;51.634;7.112;2022-10-16T01:48:09;10.83;;;3.03;;
313;SDS011;143;51.634;7.112;2022-10-16T01:50:39;11.27;;;2.90;;
313;SDS011;143;51.634;7.112;2022-10-16T01:53:08;6.30;;;2.40;;
313;SDS011;143;51.634;7.112;2022-10-16T01:55:38;8.40;;;2.70;;
313;SDS011;143;51.634;7.112;2022-10-16T01:58:10;5.87;;;2.73;;
313;SDS011;143;51.634;7.112;2022-10-16T02:00:38;5.07;;;2.23;;
313;SDS011;143;51.634;7.112;2022-10-16T02:03:06;4.87;;;2.73;;
313;SDS011;143;51.634;7.112;2022-10-16T02:05:34;4.83;;;2.37;;
313;SDS011;143;51.634;7.112;2022-10-16T02:08:20;6.17;;;1.93;;
313;SDS011;143;51.634;7.112;2022-10-16T02:10:49;3.80;;;1.90;;
313;SDS011;143;51.634;7.112;2022-10-16T02:15:49;6.03;;;1.80;;
313;SDS011;143;51.634;7.112;2022-10-16T02:18:14;4.43;;;1.80;;
313;SDS011;143;51.634;7.112;2022-10-16T02:20:57;2.47;;;1.50;;
313;SDS011;143;51.634;7.112;2022-10-16T02:23:37;3.43;;;2.20;;
313;SDS011;143;51.634;7.112;2022-10-16T02:26:09;2.47;;;1.77;;
313;SDS011;143;51.634;7.112;2022-10-16T02:28:40;4.07;;;1.80;;
313;SDS011;143;51.634;7.112;2022-10-16T02:31:11;2.80;;;2.03;;
313;SDS011;143;51.634;7.112;2022-10-16T02:33:41;4.07;;;1.57;;
313;SDS011;143;51.634;7.112;2022-10-16T02:36:09;3.70;;;1.83;;
313;SDS011;143;51.634;7.112;2022-10-16T02:38:35;8.97;;;2.17;;
313;SDS011;143;51.634;7.112;2022-10-16T02:41:01;1.50;;;1.10;;
313;SDS011;143;51.634;7.112;2022-10-16T02:43:28;9.57;;;1.57;;
313;SDS011;143;51.634;7.112;2022-10-16T02:45:54;4.20;;;1.87;;
313;SDS011;143;51.634;7.112;2022-10-16T02:48:20;6.60;;;1.60;;
313;SDS011;143;51.634;7.112;2022-10-16T02:50:46;2.67;;;1.97;;
313;SDS011;143;51.634;7.112;2022-10-16T02:53:11;9.60;;;1.93;;
313;SDS011;143;51.634;7.112;2022-10-16T02:55:37;3.43;;;1.73;;
313;SDS011;143;51.634;7.112;2022-10-16T02:58:03;3.33;;;1.40;;
313;SDS011;143;51.634;7.112;2022-10-16T03:00:28;2.30;;;1.53;;
313;SDS011;143;51.634;7.112;2022-10-16T03:02:54;2.20;;;1.20;;
313;SDS011;143;51.634;7.112;2022-10-16T03:05:20;2.70;;;1.50;;
313;SDS011;143;51.634;7.112;2022-10-16T03:07:45;2.03;;;1.03;;
313;SDS011;143;51.634;7.112;2022-10-16T03:10:11;3.17;;;1.37;;
313;SDS011;143;51.634;7.112;2022-10-16T03:12:37;1.70;;;1.20;;
313;SDS011;143;51.634;7.112;2022-10-16T03:15:03;5.50;;;1.40;;
313;SDS011;143;51.634;7.112;2022-10-16T03:17:29;5.07;;;1.50;;
313;SDS011;143;51.634;7.112;2022-10-16T03:19:54;5.80;;;1.30;;
313;SDS011;143;51.634;7.112;2022-10-16T03:22:20;6.03;;;1.53;;
313;SDS011;143;51.634;7.112;2022-10-16T03:24:46;6.27;;;1.77;;
313;SDS011;143;51.634;7.112;2022-10-16T03:27:11;2.53;;;1.83;;
313;SDS011;143;51.634;7.112;2022-10-16T03:29:37;4.30;;;1.87;;
313;SDS011;143;51.634;7.112;2022-10-16T03:32:03;3.87;;;1.43;;
313;SDS011;143;51.634;7.112;2022-10-16T03:34:28;3.80;;;1.40;;
313;SDS011;143;51.634;7.112;2022-10-16T03:36:54;8.03;;;1.50;;
313;SDS011;143;51.634;7.112;2022-10-16T03:39:20;3.47;;;1.53;;
313;SDS011;143;51.634;7.112;2022-10-16T03:41:45;3.10;;;1.43;;
313;SDS011;143;51.634;7.112;2022-10-16T03:44:11;2.00;;;1.30;;
313;SDS011;143;51.634;7.112;2022-10-16T03:46:37;4.10;;;1.60;;
313;SDS011;143;51.634;7.112;2022-10-16T03:49:03;1.67;;;1.20;;
313;SDS011;143;51.634;7.112;2022-10-16T03:51:29;7.30;;;1.50;;
313;SDS011;143;51.634;7.112;2022-10-16T03:53:54;6.43;;;1.40;;
313;SDS011;143;51.634;7.112;2022-10-16T03:56:20;3.93;;;1.20;;
313;SDS011;143;51.634;7.112;2022-10-16T03:58:46;3.57;;;1.50;;
313;SDS011;143;51.634;7.112;2022-10-16T04:01:11;4.40;;;1.60;;
313;SDS011;143;51.634;7.112;2022-10-16T04:03:37;2.90;;;1.33;;
313;SDS011;143;51.634;7.112;2022-10-16T04:06:03;1.30;;;1.00;;
313;SDS011;143;51.634;7.112;2022-10-16T04:08:28;1.67;;;0.97;;
313;SDS011;143;51.634;7.112;2022-10-16T04:10:54;5.97;;;1.53;;
313;SDS011;143;51.634;7.112;2022-10-16T04:13:20;5.77;;;1.73;;
313;SDS011;143;51.634;7.112;2022-10-16T04:15:45;1.87;;;1.27;;
313;SDS011;143;51.634;7.112;2022-10-16T04:18:11;3.63;;;1.10;;
313;SDS011;143;51.634;7.112;2022-10-16T04:20:37;2.60;;;1.30;;
313;SDS011;143;51.634;7.112;2022-10-16T04:23:03;2.17;;;1.17;;
313;SDS011;143;51.634;7.112;2022-10-16T04:25:29;2.00;;;1.13;;
313;SDS011;143;51.634;7.112;2022-10-16T04:27:55;1.80;;;1.20;;
313;SDS011;143;51.634;7.112;2022-10-16T04:30:21;2.20;;;1.20;;
313;SDS011;143;51.634;7.112;2022-10-16T04:32:48;2.27;;;1.50;;
313;SDS011;143;51.634;7.112;2022-10-16T04:35:17;3.17;;;1.70;;
313;SDS011;143;51.634;7.112;2022-10-16T04:37:44;1.97;;;1.20;;
313;SDS011;143;51.634;7.112;2022-10-16T04:40:10;2.37;;;1.20;;
313;SDS011;143;51.634;7.112;2022-10-16T04:42:36;3.53;;;1.43;;
313;SDS011;143;51.634;7.112;2022-10-16T04:45:02;2.40;;;1.20;;
313;SDS011;143;51.634;7.112;2022-10-16T04:47:29;4.80;;;1.60;;
313;SDS011;143;51.634;7.112;2022-10-16T04:49:54;2.57;;;1.23;;
313;SDS011;143;51.634;7.112;2022-10-16T04:52:21;8.90;;;1.20;;
313;SDS011;143;51.634;7.112;2022-10-16T04:54:49;4.73;;;1.27;;
313;SDS011;143;51.634;7.112;2022-10-16T04:57:15;1.77;;;1.20;;
313;SDS011;143;51.634;7.112;2022-10-16T04:59:41;2.90;;;1.20;;
313;SDS011;143;51.634;7.112;2022-10-16T05:02:07;7.83;;;1.43;;
313;SDS011;143;51.634;7.112;2022-10-16T05:04:33;4.57;;;1.60;;
313;SDS011;143;51.634;7.112;2022-10-16T05:06:59;2.57;;;1.60;;
313;SDS011;143;51.634;7.112;2022-10-16T05:09:24;2.00;;;1.20;;
313;SDS011;143;51.634;7.112;2022-10-16T05:11:50;5.57;;;1.33;;
313;SDS011;143;51.634;7.112;2022-10-16T05:14:16;2.70;;;1.70;;
313;SDS011;143;51.634;7.112;2022-10-16T05:16:42;3.67;;;1.27;;
313;SDS011;143;51.634;7.112;2022-10-16T05:19:08;3.60;;;1.63;;
313;SDS011;143;51.634;7.112;2022-10-16T05:21:33;4.40;;;1.60;;
313;SDS011;143;51.634;7.112;2022-10-16T05:23:59;2.70;;;1.70;;
313;SDS011;143;51.634;7.112;2022-10-16T05:26:25;3.80;;;1.50;;
313;SDS011;143;51.634;7.112;2022-10-16T05:28:50;2.20;;;1.30;;
313;SDS011;143;51.634;7.112;2022-10-16T05:31:16;3.53;;;1.60;;
313;SDS011;143;51.634;7.112;2022-10-16T05:33:41;2.50;;;1.53;;
313;SDS011;143;51.634;7.112;2022-10-16T05:36:09;4.40;;;1.60;;
313;SDS011;143;51.634;7.112;2022-10-16T05:38:35;3.53;;;1.27;;
313;SDS011;143;51.634;7.112;2022-10-16T05:41:02;2.00;;;1.40;;
313;SDS011;143;51.634;7.112;2022-10-16T05:43:28;4.60;;;1.60;;
313;SDS011;143;51.634;7.112;2022-10-16T05:45:56;11.37;;;1.20;;
313;SDS011;143;51.634;7.112;2022-10-16T05:48:22;2.90;;;1.57;;
313;SDS011;143;51.634;7.112;2022-10-16T05:50:48;4.80;;;1.13;;
313;SDS011;143;51.634;7.112;2022-10-16T05:53:21;3.83;;;1.60;;
313;SDS011;143;51.634;7.112;2022-10-16T05:55:56;1.77;;;1.30;;
313;SDS011;143;51.634;7.112;2022-10-16T05:58:23;4.10;;;1.33;;
313;SDS011;143;51.634;7.112;2022-10-16T06:00:54;5.00;;;1.33;;
313;SDS011;143;51.634;7.112;2022-10-16T06:03:23;6.87;;;1.93;;
313;SDS011;143;51.634;7.112;2022-10-16T06:05:49;2.30;;;1.67;;
313;SDS011;143;51.634;7.112;2022-10-16T06:08:15;5.90;;;1.77;;
313;SDS011;143;51.634;7.112;2022-10-16T06:10:42;6.17;;;1.43;;
313;SDS011;143;51.634;7.112;2022-10-16T06:13:09;3.23;;;1.80;;
313;SDS011;143;51.634;7.112;2022-10-16T06:15:35;5.27;;;1.97;;
313;SDS011;143;51.634;7.112;2022-10-16T06:18:01;5.80;;;1.50;;
313;SDS011;143;51.634;7.112;2022-10-16T06:20:27;2.53;;;1.40;;
313;SDS011;143;51.634;7.112;2022-10-16T06:22:52;3.30;;;1.87;;
313;SDS011;143;51.634;7.112;2022-10-16T06:25:18;1.73;;;1.33;;
313;SDS011;143;51.634;7.112;2022-10-16T06:27:44;5.13;;;1.47;;
313;SDS011;143;51.634;7.112;2022-10-16T06:30:09;3.87;;;1.07;;
313;SDS011;143;51.634;7.112;2022-10-16T06:32:35;3.20;;;1.30;;
313;SDS011;143;51.634;7.112;2022-10-16T06:35:01;1.63;;;1.43;;
313;SDS011;143;51.634;7.112;2022-10-16T06:37:27;6.43;;;1.90;;
313;SDS011;143;51.634;7.112;2022-10-16T06:39:52;8.03;;;1.93;;
313;SDS011;143;51.634;7.112;2022-10-16T06:42:18;3.30;;;1.80;;
313;SDS011;143;51.634;7.112;2022-10-16T06:44:44;2.50;;;1.57;;
313;SDS011;143;51.634;7.112;2022-10-16T06:47:10;5.37;;;1.70;;
313;SDS011;143;51.634;7.112;2022-10-16T06:49:36;6.10;;;1.90;;
313;SDS011;143;51.634;7.112;2022-10-16T06:52:02;5.63;;;1.80;;
313;SDS011;143;51.634;7.112;2022-10-16T06:54:28;1.90;;;1.40;;
313;SDS011;143;51.634;7.112;2022-10-16T06:56:54;2.50;;;1.43;;
313;SDS011;143;51.634;7.112;2022-10-16T06:59:20;1.97;;;1.30;;
313;SDS011;143;51.634;7.112;2022-10-16T07:01:46;3.27;;;1.67;;
313;SDS011;143;51.634;7.112;2022-10-16T07:04:12;2.07;;;1.53;;
313;SDS011;143;51.634;7.112;2022-10-16T07:06:38;5.63;;;1.93;;
313;SDS011;143;51.634;7.112;2022-10-16T07:09:05;3.50;;;2.10;;
313;SDS011;143;51.634;7.112;2022-10-16T07:11:33;6.17;;;2.13;;
313;SDS011;143;51.634;7.112;2022-10-16T07:13:59;7.33;;;2.17;;
313;SDS011;143;51.634;7.112;2022-10-16T07:16:26;4.00;;;1.87;;
313;SDS011;143;51.634;7.112;2022-10-16T07:18:57;6.67;;;2.20;;
313;SDS011;143;51.634;7.112;2022-10-16T07:21:24;9.63;;;2.10;;
313;SDS011;143;51.634;7.112;2022-10-16T07:23:54;6.53;;;1.83;;
313;SDS011;143;51.634;7.112;2022-10-16T07:26:22;6.20;;;2.10;;
313;SDS011;143;51.634;7.112;2022-10-16T07:28:48;4.83;;;2.57;;
313;SDS011;143;51.634;7.112;2022-10-16T07:31:15;3.30;;;1.57;;
313;SDS011;143;51.634;7.112;2022-10-16T07:33:42;6.50;;;2.27;;
313;SDS011;143;51.634;7.112;2022-10-16T07:36:09;3.20;;;2.13;;
313;SDS011;143;51.634;7.112;2022-10-16T07:38:36;3.90;;;1.80;;
313;SDS011;143;51.634;7.112;2022-10-16T07:41:03;3.80;;;1.90;;
313;SDS011;143;51.634;7.112;2022-10-16T07:43:30;5.10;;;2.10;;
313;SDS011;143;51.634;7.112;2022-10-16T07:45:57;4.83;;;2.10;;
313;SDS011;143;51.634;7.112;2022-10-16T07:48:23;5.33;;;2.13;;
313;SDS011;143;51.634;7.112;2022-10-16T07:50:52;3.33;;;1.97;;
313;SDS011;143;51.634;7.112;2022-10-16T07:53:17;2.90;;;1.63;;
313;SDS011;143;51.634;7.112;2022-10-16T07:55:43;3.00;;;1.67;;
313;SDS011;143;51.634;7.112;2022-10-16T07:58:09;6.77;;;1.87;;
313;SDS011;143;51.634;7.112;2022-10-16T08:00:35;3.90;;;1.80;;
313;SDS011;143;51.634;7.112;2022-10-16T08:03:02;4.37;;;1.97;;
313;SDS011;143;51.634;7.112;2022-10-16T08:05:28;4.07;;;1.67;;
313;SDS011;143;51.634;7.112;2022-10-16T08:07:55;13.70;;;2.17;;
313;SDS011;143;51.634;7.112;2022-10-16T08:10:22;1.80;;;1.43;;
313;SDS011;143;51.634;7.112;2022-10-16T08:12:50;4.60;;;1.73;;
313;SDS011;143;51.634;7.112;2022-10-16T08:15:16;4.27;;;1.70;;
313;SDS011;143;51.634;7.112;2022-10-16T08:17:42;5.90;;;1.50;;
313;SDS011;143;51.634;7.112;2022-10-16T08:20:08;6.37;;;1.90;;
313;SDS011;143;51.634;7.112;2022-10-16T08:22:34;3.20;;;2.50;;
313;SDS011;143;51.634;7.112;2022-10-16T08:25:00;4.53;;;1.67;;
313;SDS011;143;51.634;7.112;2022-10-16T08:27:30;7.27;;;2.03;;
313;SDS011;143;51.634;7.112;2022-10-16T08:29:59;5.60;;;1.47;;
313;SDS011;143;51.634;7.112;2022-10-16T08:32:24;11.50;;;2.00;;
313;SDS011;143;51.634;7.112;2022-10-16T08:34:50;11.10;;;3.03;;
313;SDS011;143;51.634;7.112;2022-10-16T08:37:16;3.50;;;1.40;;
313;SDS011;143;51.634;7.112;2022-10-16T08:39:41;4.93;;;1.90;;
313;SDS011;143;51.634;7.112;2022-10-16T08:42:20;5.67;;;1.80;;
313;SDS011;143;51.634;7.112;2022-10-16T08:44:56;5.63;;;2.07;;
313;SDS011;143;51.634;7.112;2022-10-16T08:47:39;3.87;;;1.80;;
313;SDS011;143;51.634;7.112;2022-10-16T08:50:46;5.67;;;2.13;;
313;SDS011;143;51.634;7.112;2022-10-16T08:53:15;3.63;;;1.80;;
313;SDS011;143;51.634;7.112;2022-10-16T08:55:49;5.23;;;1.57;;
313;SDS011;143;51.634;7.112;2022-10-16T08:58:21;5.23;;;2.70;;
313;SDS011;143;51.634;7.112;2022-10-16T09:00:55;7.03;;;1.90;;
313;SDS011;143;51.634;7.112;2022-10-16T09:09:05;7.13;;;2.00;;
313;SDS011;143;51.634;7.112;2022-10-16T09:20:14;6.40;;;2.10;;
313;SDS011;143;51.634;7.112;2022-10-16T09:22:45;3.53;;;2.03;;
313;SDS011;143;51.634;7.112;2022-10-16T09:25:15;7.97;;;2.10;;
313;SDS011;143;51.634;7.112;2022-10-16T09:27:44;8.13;;;3.70;;
313;SDS011;143;51.634;7.112;2022-10-16T09:30:19;4.87;;;2.80;;
313;SDS011;143;51.634;7.112;2022-10-16T09:32:47;4.83;;;2.10;;
313;SDS011;143;51.634;7.112;2022-10-16T09:35:18;5.90;;;2.93;;
313;SDS011;143;51.634;7.112;2022-10-16T09:37:50;9.23;;;3.27;;
313;SDS011;143;51.634;7.112;2022-10-16T09:40:31;11.33;;;2.90;;
313;SDS011;143;51.634;7.112;2022-10-16T09:43:21;5.63;;;2.60;;
313;SDS011;143;51.634;7.112;2022-10-16T09:45:55;6.97;;;3.00;;
313;SDS011;143;51.634;7.112;2022-10-16T09:48:23;4.87;;;1.97;;
313;SDS011;143;51.634;7.112;2022-10-16T09:51:00;6.90;;;2.30;;
313;SDS011;143;51.634;7.112;2022-10-16T09:56:28;4.90;;;2.00;;
313;SDS011;143;51.634;7.112;2022-10-16T09:58:56;8.37;;;2.70;;
313;SDS011;143;51.634;7.112;2022-10-16T10:01:28;5.87;;;2.50;;
313;SDS011;143;51.634;7.112;2022-10-16T10:04:02;5.20;;;2.10;;
313;SDS011;143;51.634;7.112;2022-10-16T10:06:29;5.23;;;2.40;;
313;SDS011;143;51.634;7.112;2022-10-16T10:12:01;3.90;;;2.10;;
313;SDS011;143;51.634;7.112;2022-10-16T10:14:34;2.40;;;1.23;;
313;SDS011;143;51.634;7.112;2022-10-16T10:19:42;3.47;;;1.37;;
313;SDS011;143;51.634;7.112;2022-10-16T10:22:25;4.83;;;0.90;;
313;SDS011;143;51.634;7.112;2022-10-16T10:30:16;4.70;;;1.10;;
313;SDS011;143;51.634;7.112;2022-10-16T10:36:34;1.87;;;1.03;;
313;SDS011;143;51.634;7.112;2022-10-16T10:46:41;5.33;;;1.93;;
313;SDS011;143;51.634;7.112;2022-10-16T10:54:32;7.90;;;1.53;;
313;SDS011;143;51.634;7.112;2022-10-16T10:59:43;5.80;;;1.80;;
313;SDS011;143;51.634;7.112;2022-10-16T11:02:21;10.60;;;2.20;;
313;SDS011;143;51.634;7.112;2022-10-16T11:07:50;1.80;;;1.23;;
313;SDS011;143;51.634;7.112;2022-10-16T11:10:23;6.93;;;1.40;;
313;SDS011;143;51.634;7.112;2022-10-16T11:12:57;3.80;;;1.67;;
313;SDS011;143;51.634;7.112;2022-10-16T11:15:34;3.83;;;1.70;;
313;SDS011;143;51.634;7.112;2022-10-16T11:18:06;4.57;;;1.80;;
313;SDS011;143;51.634;7.112;2022-10-16T11:20:46;3.80;;;1.40;;
313;SDS011;143;51.634;7.112;2022-10-16T11:23:38;5.03;;;2.33;;
313;SDS011;143;51.634;7.112;2022-10-16T11:26:21;2.17;;;1.37;;
313;SDS011;143;51.634;7.112;2022-10-16T11:28:52;5.90;;;2.37;;
313;SDS011;143;51.634;7.112;2022-10-16T11:34:08;4.20;;;0.93;;
313;SDS011;143;51.634;7.112;2022-10-16T11:36:49;4.50;;;1.00;;
313;SDS011;143;51.634;7.112;2022-10-16T11:39:24;4.00;;;1.10;;
313;SDS011;143;51.634;7.112;2022-10-16T11:41:52;2.83;;;0.60;;
313;SDS011;143;51.634;7.112;2022-10-16T11:44:38;8.63;;;1.10;;
313;SDS011;143;51.634;7.112;2022-10-16T11:55:39;2.87;;;1.30;;
313;SDS011;143;51.634;7.112;2022-10-16T12:06:30;7.53;;;1.13;;
313;SDS011;143;51.634;7.112;2022-10-16T12:09:10;10.97;;;2.10;;
313;SDS011;143;51.634;7.112;2022-10-16T12:11:54;5.47;;;1.80;;
313;SDS011;143;51.634;7.112;2022-10-16T12:14:34;6.80;;;2.10;;
313;SDS011;143;51.634;7.112;2022-10-16T12:19:30;11.30;;;1.87;;
313;SDS011;143;51.634;7.112;2022-10-16T12:22:00;6.77;;;1.73;;
313;SDS011;143;51.634;7.112;2022-10-16T12:27:03;4.40;;;1.47;;
313;SDS011;143;51.634;7.112;2022-10-16T12:29:41;3.20;;;1.43;;
313;SDS011;143;51.634;7.112;2022-10-16T12:32:27;2.70;;;1.00;;
313;SDS011;143;51.634;7.112;2022-10-16T12:34:59;4.60;;;1.33;;
313;SDS011;143;51.634;7.112;2022-10-16T12:37:27;7.03;;;1.57;;
313;SDS011;143;51.634;7.112;2022-10-16T12:39:54;4.07;;;1.40;;
313;SDS011;143;51.634;7.112;2022-10-16T12:44:53;8.63;;;1.50;;
313;SDS011;143;51.634;7.112;2022-10-16T12:47:23;3.47;;;1.03;;
313;SDS011;143;51.634;7.112;2022-10-16T12:49:54;3.97;;;1.30;;
313;SDS011;143;51.634;7.112;2022-10-16T12:52:25;4.53;;;1.60;;
313;SDS011;143;51.634;7.112;2022-10-16T12:54:55;9.33;;;1.83;;
313;SDS011;143;51.634;7.112;2022-10-16T13:00:35;4.00;;;1.33;;
313;SDS011;143;51.634;7.112;2022-10-16T13:03:02;3.53;;;1.27;;
313;SDS011;143;51.634;7.112;2022-10-16T13:06:19;6.60;;;1.73;;
313;SDS011;143;51.634;7.112;2022-10-16T13:17:36;4.83;;;1.30;;
313;SDS011;143;51.634;7.112;2022-10-16T13:28:22;5.07;;;1.33;;
313;SDS011;143;51.634;7.112;2022-10-16T13:30:54;3.17;;;1.10;;
313;SDS011;143;51.634;7.112;2022-10-16T13:35:52;4.33;;;1.10;;
313;SDS011;143;51.634;7.112;2022-10-16T13:38:26;3.27;;;0.90;;
313;SDS011;143;51.634;7.112;2022-10-16T13:43:26;5.00;;;1.20;;
313;SDS011;143;51.634;7.112;2022-10-16T13:46:04;4.13;;;1.30;;
313;SDS011;143;51.634;7.112;2022-10-16T13:48:32;6.07;;;1.30;;
313;SDS011;143;51.634;7.112;2022-10-16T13:51:06;6.07;;;2.17;;
313;SDS011;143;51.634;7.112;2022-10-16T13:53:35;4.00;;;1.53;;
313;SDS011;143;51.634;7.112;2022-10-16T13:56:02;2.03;;;1.10;;
313;SDS011;143;51.634;7.112;2022-10-16T13:58:29;5.63;;;1.00;;
313;SDS011;143;51.634;7.112;2022-10-16T14:00:56;3.83;;;0.97;;
313;SDS011;143;51.634;7.112;2022-10-16T14:03:23;1.30;;;0.80;;
313;SDS011;143;51.634;7.112;2022-10-16T14:05:51;6.40;;;1.83;;
313;SDS011;143;51.634;7.112;2022-10-16T14:08:19;2.90;;;0.80;;
313;SDS011;143;51.634;7.112;2022-10-16T14:10:50;3.50;;;1.03;;
313;SDS011;143;51.634;7.112;2022-10-16T14:13:19;2.30;;;1.10;;
313;SDS011;143;51.634;7.112;2022-10-16T14:15:51;4.80;;;1.60;;
313;SDS011;143;51.634;7.112;2022-10-16T14:18:23;6.03;;;1.20;;
313;SDS011;143;51.634;7.112;2022-10-16T14:20:50;4.77;;;1.40;;
313;SDS011;143;51.634;7.112;2022-10-16T14:23:21;1.60;;;1.20;;
313;SDS011;143;51.634;7.112;2022-10-16T14:26:05;9.57;;;1.30;;
313;SDS011;143;51.634;7.112;2022-10-16T14:28:40;4.40;;;1.40;;
313;SDS011;143;51.634;7.112;2022-10-16T14:33:53;10.30;;;1.50;;
313;SDS011;143;51.634;7.112;2022-10-16T14:36:19;5.40;;;1.37;;
313;SDS011;143;51.634;7.112;2022-10-16T14:41:21;1.50;;;1.10;;
313;SDS011;143;51.634;7.112;2022-10-16T14:43:51;5.13;;;1.43;;
313;SDS011;143;51.634;7.112;2022-10-16T14:46:21;2.30;;;0.93;;
313;SDS011;143;51.634;7.112;2022-10-16T14:48:52;3.00;;;1.00;;
313;SDS011;143;51.634;7.112;2022-10-16T14:51:24;4.70;;;1.17;;
313;SDS011;143;51.634;7.112;2022-10-16T14:53:49;7.97;;;1.00;;
313;SDS011;143;51.634;7.112;2022-10-16T14:56:22;4.37;;;1.00;;
313;SDS011;143;51.634;7.112;2022-10-16T14:58:50;3.50;;;1.00;;
313;SDS011;143;51.634;7.112;2022-10-16T15:01:17;7.13;;;1.73;;
313;SDS011;143;51.634;7.112;2022-10-16T15:03:43;1.20;;;0.90;;
313;SDS011;143;51.634;7.112;2022-10-16T15:06:12;3.17;;;1.50;;
313;SDS011;143;51.634;7.112;2022-10-16T15:08:40;1.93;;;1.10;;
313;SDS011;143;51.634;7.112;2022-10-16T15:11:12;2.90;;;1.20;;
313;SDS011;143;51.634;7.112;2022-10-16T15:13:41;4.77;;;1.17;;
313;SDS011;143;51.634;7.112;2022-10-16T15:16:10;4.83;;;1.30;;
313;SDS011;143;51.634;7.112;2022-10-16T15:18:37;3.83;;;1.50;;
313;SDS011;143;51.634;7.112;2022-10-16T15:21:02;3.17;;;1.40;;
313;SDS011;143;51.634;7.112;2022-10-16T15:23:28;3.43;;;1.20;;
313;SDS011;143;51.634;7.112;2022-10-16T15:25:55;6.43;;;1.57;;
313;SDS011;143;51.634;7.112;2022-10-16T15:28:21;1.87;;;1.20;;
313;SDS011;143;51.634;7.112;2022-10-16T15:30:52;11.00;;;1.30;;
313;SDS011;143;51.634;7.112;2022-10-16T15:33:20;2.87;;;1.13;;
313;SDS011;143;51.634;7.112;2022-10-16T15:35:48;4.50;;;1.17;;
313;SDS011;143;51.634;7.112;2022-10-16T15:38:18;4.30;;;1.30;;
313;SDS011;143;51.634;7.112;2022-10-16T15:40:46;2.50;;;1.00;;
313;SDS011;143;51.634;7.112;2022-10-16T15:43:12;4.83;;;1.10;;
313;SDS011;143;51.634;7.112;2022-10-16T15:45:38;5.00;;;1.50;;
313;SDS011;143;51.634;7.112;2022-10-16T15:48:04;6.00;;;1.10;;
313;SDS011;143;51.634;7.112;2022-10-16T15:50:30;2.80;;;1.00;;
313;SDS011;143;51.634;7.112;2022-10-16T15:52:57;3.13;;;1.00;;
313;SDS011;143;51.634;7.112;2022-10-16T15:55:23;4.83;;;1.20;;
313;SDS011;143;51.634;7.112;2022-10-16T15:57:49;5.03;;;1.00;;
313;SDS011;143;51.634;7.112;2022-10-16T16:00:17;2.77;;;1.10;;
313;SDS011;143;51.634;7.112;2022-10-16T16:02:50;5.40;;;1.77;;
313;SDS011;143;51.634;7.112;2022-10-16T16:05:17;2.50;;;1.23;;
313;SDS011;143;51.634;7.112;2022-10-16T16:07:43;4.23;;;0.87;;
313;SDS011;143;51.634;7.112;2022-10-16T16:10:09;4.33;;;1.40;;
313;SDS011;143;51.634;7.112;2022-10-16T16:12:36;6.60;;;1.00;;
313;SDS011;143;51.634;7.112;2022-10-16T16:15:03;7.13;;;1.20;;
313;SDS011;143;51.634;7.112;2022-10-16T16:17:30;5.13;;;1.27;;
313;SDS011;143;51.634;7.112;2022-10-16T16:19:56;2.13;;;1.30;;
313;SDS011;143;51.634;7.112;2022-10-16T16:22:22;3.33;;;1.40;;
313;SDS011;143;51.634;7.112;2022-10-16T16:24:47;5.37;;;1.20;;
313;SDS011;143;51.634;7.112;2022-10-16T16:27:13;1.63;;;1.20;;
313;SDS011;143;51.634;7.112;2022-10-16T16:29:39;4.33;;;1.60;;
313;SDS011;143;51.634;7.112;2022-10-16T16:32:05;9.90;;;2.13;;
313;SDS011;143;51.634;7.112;2022-10-16T16:34:31;11.27;;;1.87;;
313;SDS011;143;51.634;7.112;2022-10-16T16:36:56;31.00;;;3.37;;
313;SDS011;143;51.634;7.112;2022-10-16T16:39:22;11.40;;;1.93;;
313;SDS011;143;51.634;7.112;2022-10-16T16:41:48;15.30;;;2.00;;
313;SDS011;143;51.634;7.112;2022-10-16T16:44:14;9.00;;;2.10;;
313;SDS011;143;51.634;7.112;2022-10-16T16:46:41;14.40;;;2.37;;
313;SDS011;143;51.634;7.112;2022-10-16T16:49:11;12.00;;;1.93;;
313;SDS011;143;51.634;7.112;2022-10-16T16:51:38;8.27;;;1.40;;
313;SDS011;143;51.634;7.112;2022-10-16T16:54:04;6.00;;;1.47;;
313;SDS011;143;51.634;7.112;2022-10-16T16:56:32;9.60;;;1.77;;
313;SDS011;143;51.634;7.112;2022-10-16T16:58:58;16.70;;;1.80;;
313;SDS011;143;51.634;7.112;2022-10-16T17:01:24;7.80;;;1.70;;
313;SDS011;143;51.634;7.112;2022-10-16T17:03:51;32.03;;;2.00;;
313;SDS011;143;51.634;7.112;2022-10-16T17:06:19;11.40;;;1.50;;
313;SDS011;143;51.634;7.112;2022-10-16T17:08:47;18.63;;;2.37;;
313;SDS011;143;51.634;7.112;2022-10-16T17:11:14;8.37;;;2.10;;
313;SDS011;143;51.634;7.112;2022-10-16T17:13:42;32.17;;;3.13;;
313;SDS011;143;51.634;7.112;2022-10-16T17:16:07;5.10;;;2.20;;
313;SDS011;143;51.634;7.112;2022-10-16T17:18:33;5.77;;;1.90;;
313;SDS011;143;51.634;7.112;2022-10-16T17:21:00;2.70;;;1.73;;
313;SDS011;143;51.634;7.112;2022-10-16T17:23:30;6.53;;;1.60;;
313;SDS011;143;51.634;7.112;2022-10-16T17:25:58;7.27;;;1.80;;
313;SDS011;143;51.634;7.112;2022-10-16T17:28:38;23.77;;;2.40;;
313;SDS011;143;51.634;7.112;2022-10-16T17:31:13;16.30;;;2.47;;
313;SDS011;143;51.634;7.112;2022-10-16T17:33:41;9.53;;;1.97;;
313;SDS011;143;51.634;7.112;2022-10-16T17:36:07;12.43;;;2.03;;
313;SDS011;143;51.634;7.112;2022-10-16T17:38:34;7.53;;;1.73;;
313;SDS011;143;51.634;7.112;2022-10-16T17:41:20;7.90;;;1.97;;
313;SDS011;143;51.634;7.112;2022-10-16T17:43:48;4.83;;;1.37;;
313;SDS011;143;51.634;7.112;2022-10-16T17:46:16;10.13;;;2.70;;
313;SDS011;143;51.634;7.112;2022-10-16T17:48:44;12.63;;;2.87;;
313;SDS011;143;51.634;7.112;2022-10-16T17:51:13;8.00;;;2.27;;
313;SDS011;143;51.634;7.112;2022-10-16T17:53:41;9.97;;;2.53;;
313;SDS011;143;51.634;7.112;2022-10-16T17:56:08;14.27;;;3.83;;
313;SDS011;143;51.634;7.112;2022-10-16T17:58:35;7.23;;;3.17;;
313;SDS011;143;51.634;7.112;2022-10-16T18:01:02;13.20;;;4.43;;
313;SDS011;143;51.634;7.112;2022-10-16T18:03:43;10.73;;;3.67;;
313;SDS011;143;51.634;7.112;2022-10-16T18:06:12;20.40;;;2.83;;